createdAt,value
2023-05-19T00:03:21.853Z,13.36
2023-05-19T00:08:26.863Z,13.05
2023-05-19T00:13:29.394Z,13.24
2023-05-19T00:18:30.993Z,12.83
2023-05-19T00:23:32.618Z,13.13
2023-05-19T00:28:34.192Z,13.05
2023-05-19T00:33:35.802Z,13.02
2023-05-19T00:38:37.854Z,12.65
2023-05-19T00:43:39.577Z,12.55
2023-05-19T00:48:41.847Z,12.59
2023-05-19T00:53:48.432Z,12.74
2023-05-19T00:58:51.881Z,12.63
2023-05-19T01:03:56.943Z,12.86
2023-05-19T01:08:58.814Z,12.87
2023-05-19T01:14:00.742Z,12.50
2023-05-19T01:19:25.456Z,12.45
2023-05-19T01:24:49.729Z,12.25
2023-05-19T01:30:19.516Z,12.59
2023-05-19T01:35:26.190Z,12.38
2023-05-19T01:40:29.003Z,12.48
2023-05-19T01:45:34.249Z,12.37
2023-05-19T01:50:36.003Z,12.59
2023-05-19T01:55:50.190Z,12.65
2023-05-19T02:01:03.217Z,12.47
2023-05-19T02:06:44.632Z,12.61
2023-05-19T02:11:55.468Z,12.97
2023-05-19T02:16:58.454Z,12.49
2023-05-19T02:22:00.064Z,12.18
2023-05-19T02:27:01.670Z,12.23
2023-05-19T02:32:03.437Z,12.06
2023-05-19T02:37:05.145Z,12.12
2023-05-19T02:42:06.873Z,11.90
2023-05-19T02:47:08.661Z,12.06
2023-05-19T02:52:13.241Z,11.96
2023-05-19T02:57:15.023Z,12.28
2023-05-19T03:02:16.879Z,12.26
2023-05-19T03:07:18.515Z,12.20
2023-05-19T03:12:20.202Z,12.12
2023-05-19T03:17:21.874Z,12.23
2023-05-19T03:22:23.569Z,12.18
2023-05-19T03:27:28.063Z,11.96
2023-05-19T03:32:29.923Z,12.24
2023-05-19T03:37:32.732Z,11.99
2023-05-19T03:42:34.936Z,12.22
2023-05-19T03:47:36.764Z,12.08
2023-05-19T03:52:48.919Z,12.16
2023-05-19T03:58:02.615Z,12.41
2023-05-19T04:03:04.482Z,12.18
2023-05-19T04:08:06.301Z,12.34
2023-05-19T04:13:07.848Z,12.72
2023-05-19T04:18:09.407Z,12.48
2023-05-19T04:23:11.079Z,12.17
2023-05-19T04:28:12.990Z,12.73
2023-05-19T04:33:14.569Z,12.60
2023-05-19T04:38:19.014Z,12.98
2023-05-19T04:43:23.278Z,13.10
2023-05-19T04:48:26.127Z,13.07
2023-05-19T04:53:31.424Z,13.14
2023-05-19T04:58:35.041Z,13.09
2023-05-19T05:03:38.349Z,13.40
2023-05-19T05:08:43.722Z,13.89
2023-05-19T05:13:46.236Z,14.02
2023-05-19T05:18:48.755Z,13.63
2023-05-19T05:23:51.904Z,14.21
2023-05-19T05:28:55.233Z,14.13
2023-05-19T05:33:57.211Z,14.56
2023-05-19T05:39:03.973Z,14.26
2023-05-19T05:44:06.219Z,14.54
2023-05-19T05:49:08.619Z,15.21
2023-05-19T05:54:12.348Z,14.24
2023-05-19T05:59:18.955Z,14.99
2023-05-19T06:04:21.342Z,14.80
2023-05-19T06:09:23.383Z,14.82
2023-05-19T06:14:26.072Z,15.73
2023-05-19T06:19:47.979Z,14.74
2023-05-19T06:24:50.424Z,15.43
2023-05-19T06:29:54.129Z,15.95
2023-05-19T06:34:56.185Z,15.90
2023-05-19T06:39:57.815Z,15.73
2023-05-19T06:44:59.841Z,16.06
2023-05-19T06:50:02.320Z,16.69
2023-05-19T06:55:08.331Z,16.74
2023-05-19T07:00:15.165Z,17.08
2023-05-19T07:05:22.767Z,18.02
2023-05-19T07:10:29.187Z,18.59
2023-05-19T07:15:31.484Z,18.80
2023-05-19T07:20:34.416Z,18.71
2023-05-19T07:25:36.374Z,19.34
2023-05-19T07:30:39.050Z,20.76
2023-05-19T07:35:40.812Z,20.99
2023-05-19T07:40:42.523Z,21.50
2023-05-19T07:45:44.297Z,20.86
2023-05-19T07:50:49.372Z,21.41
2023-05-19T07:55:53.457Z,21.40
2023-05-19T08:00:58.780Z,23.15
2023-05-19T08:06:00.558Z,20.89
2023-05-19T08:11:06.697Z,22.07
2023-05-19T08:16:08.432Z,21.94
2023-05-19T08:21:12.506Z,22.09
2023-05-19T08:26:14.181Z,21.53
2023-05-19T08:31:18.349Z,23.39
2023-05-19T08:36:20.135Z,23.82
2023-05-19T08:41:23.249Z,23.47
2023-05-19T08:46:25.485Z,22.49
2023-05-19T08:51:30.044Z,22.58
2023-05-19T08:56:32.342Z,22.37
2023-05-19T09:01:34.763Z,23.09
2023-05-19T09:06:36.450Z,23.55
2023-05-19T09:11:38.101Z,22.84
2023-05-19T09:16:40.212Z,23.88
2023-05-19T09:21:42.109Z,24.84
2023-05-19T09:26:43.770Z,23.34
2023-05-19T09:32:01.000Z,23.54
2023-05-19T09:37:02.895Z,25.11
2023-05-19T09:42:05.564Z,25.14
2023-05-19T09:47:09.800Z,25.07
2023-05-19T09:52:16.239Z,22.84
2023-05-19T09:57:17.913Z,24.93
2023-05-19T10:02:21.791Z,25.78
2023-05-19T10:07:24.441Z,24.97
2023-05-19T10:12:26.740Z,23.72
2023-05-19T10:17:28.880Z,23.06
2023-05-19T10:22:30.919Z,23.86
2023-05-19T10:27:35.448Z,25.17
2023-05-19T10:32:39.505Z,25.77
2023-05-19T10:37:59.300Z,26.70
2023-05-19T10:43:32.059Z,26.56
2023-05-19T10:48:36.348Z,25.63
2023-05-19T10:53:42.026Z,24.94
2023-05-19T10:58:43.542Z,25.43
2023-05-19T11:03:49.737Z,25.41
2023-05-19T11:09:10.509Z,26.78
2023-05-19T11:14:15.026Z,25.65
2023-05-19T11:19:28.887Z,26.72
2023-05-19T11:24:37.571Z,27.02
2023-05-19T11:29:39.514Z,26.45
2023-05-19T11:34:44.415Z,24.18
2023-05-19T11:39:47.407Z,25.62
2023-05-19T11:44:49.182Z,27.29
2023-05-19T11:49:54.831Z,25.21
2023-05-19T11:55:01.587Z,23.09
2023-05-19T12:00:09.114Z,24.82
2023-05-19T12:05:18.665Z,23.97
2023-05-19T12:10:25.284Z,25.94
2023-05-19T12:15:26.935Z,26.85
2023-05-19T12:20:36.012Z,25.98
2023-05-19T12:25:38.530Z,26.69
2023-05-19T12:30:41.440Z,27.67
2023-05-19T12:35:43.418Z,28.10
2023-05-19T12:40:45.263Z,28.36
2023-05-19T12:45:47.073Z,25.87
2023-05-19T12:50:49.460Z,23.31
2023-05-19T12:55:52.737Z,23.66
2023-05-19T13:00:59.887Z,25.17
2023-05-19T13:06:01.591Z,24.67
2023-05-19T13:11:03.348Z,26.36
2023-05-19T13:16:05.345Z,26.24
2023-05-19T13:21:06.956Z,26.92
2023-05-19T13:26:09.083Z,26.73
2023-05-19T13:31:10.677Z,25.75
2023-05-19T13:36:12.282Z,25.95
2023-05-19T13:41:15.971Z,24.75
2023-05-19T13:46:19.294Z,25.13
2023-05-19T13:51:23.963Z,25.77
2023-05-19T13:56:26.884Z,25.13
2023-05-19T14:01:28.725Z,23.82
2023-05-19T14:06:30.430Z,25.19
2023-05-19T14:11:32.485Z,25.42
2023-05-19T14:21:36.896Z,25.90
2023-05-19T14:26:41.800Z,24.67
2023-05-19T14:31:44.389Z,25.64
2023-05-19T14:36:52.425Z,24.98
2023-05-19T14:41:54.182Z,24.34
2023-05-19T14:46:55.894Z,25.09
2023-05-19T14:51:57.505Z,25.10
2023-05-19T14:56:59.120Z,26.23
2023-05-19T15:02:00.761Z,24.95
2023-05-19T15:12:06.873Z,25.35
2023-05-19T15:17:08.488Z,23.77
2023-05-19T15:22:10.172Z,26.33
2023-05-19T15:27:11.758Z,25.76
2023-05-19T15:32:13.360Z,23.68
2023-05-19T15:37:15.436Z,25.32
2023-05-19T15:42:17.001Z,23.58
2023-05-19T15:47:18.568Z,24.48
2023-05-19T15:52:20.220Z,24.04
2023-05-19T15:57:21.810Z,25.06
2023-05-19T16:02:23.372Z,24.20
2023-05-19T16:07:25.100Z,24.46
2023-05-19T16:12:27.844Z,24.24
2023-05-19T16:17:29.406Z,24.97
2023-05-19T16:22:31.092Z,24.98
2023-05-19T16:27:32.635Z,25.31
2023-05-19T16:32:34.351Z,24.86
2023-05-19T16:37:35.989Z,24.32
2023-05-19T16:42:37.552Z,24.65
2023-05-19T16:47:39.253Z,24.75
2023-05-19T16:52:40.864Z,24.90
2023-05-19T16:57:42.702Z,24.37
2023-05-19T17:02:44.436Z,23.73
2023-05-19T17:07:46.130Z,24.21
2023-05-19T17:12:47.718Z,25.08
2023-05-19T17:17:49.299Z,24.20
2023-05-19T17:22:51.039Z,24.43
2023-05-19T17:27:52.727Z,23.92
2023-05-19T17:32:54.338Z,24.39
2023-05-19T17:37:56.039Z,24.06
2023-05-19T17:42:57.668Z,23.51
2023-05-19T17:47:59.372Z,23.07
2023-05-19T17:53:01.785Z,23.10
2023-05-19T17:58:03.746Z,23.05
2023-05-19T18:03:06.358Z,23.55
2023-05-19T18:08:09.605Z,22.73
2023-05-19T18:13:14.058Z,22.40
2023-05-19T18:18:16.258Z,22.32
2023-05-19T18:23:18.583Z,22.16
2023-05-19T18:28:21.476Z,22.00
2023-05-19T18:33:25.427Z,21.98
2023-05-19T18:38:28.009Z,22.03
2023-05-19T18:43:30.218Z,21.90
2023-05-19T18:48:33.224Z,22.02
2023-05-19T18:53:35.720Z,21.64
2023-05-19T18:58:37.303Z,21.38
2023-05-19T19:03:38.936Z,21.38
2023-05-19T19:08:40.551Z,21.16
2023-05-19T19:13:42.124Z,20.97
2023-05-19T19:18:43.799Z,20.82
2023-05-19T19:23:45.904Z,20.63
2023-05-19T19:28:47.558Z,20.55
2023-05-19T19:33:49.220Z,20.57
2023-05-19T19:38:50.945Z,20.35
2023-05-19T19:43:53.288Z,20.41
2023-05-19T19:48:58.166Z,20.18
2023-05-19T19:53:59.790Z,20.02
2023-05-19T19:59:01.576Z,19.54
2023-05-19T20:04:04.141Z,19.71
2023-05-19T20:09:05.880Z,19.59
2023-05-19T20:14:07.670Z,19.17
2023-05-19T20:19:09.569Z,19.22
2023-05-19T20:24:11.216Z,19.23
2023-05-19T20:29:12.830Z,19.06
2023-05-19T20:34:14.468Z,19.07
2023-05-19T20:39:16.089Z,19.27
2023-05-19T20:44:17.683Z,18.74
2023-05-19T20:49:19.251Z,18.69
2023-05-19T20:54:21.321Z,18.79
2023-05-19T20:59:22.976Z,18.55
2023-05-19T21:04:24.819Z,18.48
2023-05-19T21:09:26.673Z,18.38
2023-05-19T21:14:28.637Z,18.10
2023-05-19T21:19:30.266Z,18.07
2023-05-19T21:24:31.890Z,18.22
2023-05-19T21:29:33.431Z,18.47
2023-05-19T21:34:34.964Z,18.43
2023-05-19T21:39:36.589Z,18.16
2023-05-19T21:44:38.174Z,18.04
2023-05-19T21:49:40.694Z,18.15
2023-05-19T21:54:42.426Z,18.36
2023-05-19T21:59:44.954Z,18.13
2023-05-19T22:04:46.645Z,17.98
2023-05-19T22:09:48.896Z,17.85
2023-05-19T22:14:50.770Z,17.82
2023-05-19T22:19:52.524Z,17.71
2023-05-19T22:24:54.104Z,17.75
2023-05-19T22:29:55.684Z,17.70
2023-05-19T22:34:57.280Z,17.63
2023-05-19T22:39:58.911Z,17.63
2023-05-19T22:45:00.559Z,17.63
2023-05-19T22:50:02.269Z,17.80
2023-05-19T22:55:04.477Z,17.43
2023-05-19T23:00:06.730Z,17.48
2023-05-19T23:05:08.739Z,17.65
2023-05-19T23:10:13.660Z,17.40
2023-05-19T23:15:16.227Z,17.29
2023-05-19T23:20:17.970Z,17.38
2023-05-19T23:25:19.597Z,17.31
2023-05-19T23:30:21.295Z,17.07
2023-05-19T23:35:23.108Z,16.75
2023-05-19T23:40:24.952Z,17.04
2023-05-19T23:45:26.585Z,17.02
2023-05-19T23:50:28.539Z,17.03
2023-05-19T23:55:30.435Z,16.82
